Tuesday, October 23, 2018, 8:55 PM EDT
Back to Local

KNYC, New York City Central Park

Location: New York, NY, United States Lat: 40.783
Local Time: 8:55 PM EDT ( 0:55 GMT) Lon: -73.967
Time Zone: US/Eastern Elev: 157 ft

Show me the last for .
Show Coded

Time T Td Feel RH Dir Speed Gust Alt SLP Vis Weather Sky Remarks
2018-10-23 19:51 54 39 - 56 - - - 30.00 29.98 0 FEW070 SCT100 6-hr Precip Total (8pm): 0.00"
6-hr Min Temp (8pm): 54.0°F
6-hr Max Temp (8pm): 63.0°F
2018-10-23 18:51 57 40 - 52 - - - 29.98 29.96 0 BKN070 OVC090 1-hr Precip Total: Trace
2018-10-23 17:51 61 36 - 39 - - - 29.93 29.90 0 FEW080 OVC100 None
2018-10-23 16:51 62 37 - 39 - - - 29.92 29.89 0 SCT090 BKN110 None
2018-10-23 15:51 62 38 - 40 - - - 29.93 29.90 0 CLR None
2018-10-23 14:51 62 41 - 45 - - - 29.94 29.92 0 CLR None
2018-10-23 13:51 61 42 - 49 - - - 29.96 29.93 0 CLR 6-hr Min Temp (2pm): 51.1°F
6-hr Max Temp (2pm): 61.0°F
2018-10-23 12:51 60 44 - 55 - - - 29.99 29.97 0 CLR None
2018-10-23 11:51 57 43 - 59 - - - 30.04 30.01 0 BKN080 None
2018-10-23 10:51 55 43 - 63 - - - 30.06 30.03 0 BKN090 None
2018-10-23 09:51 55 44 - 66 - - - 30.08 30.05 0 OVC090 None
2018-10-23 08:51 54 44 - 69 - - - 30.09 30.06 0 OVC090 None
2018-10-23 07:51 51 44 - 76 - - - 30.09 30.06 0 OVC095 6-hr Min Temp (8am): 48.9°F
6-hr Max Temp (8am): 52.0°F
2018-10-23 06:51 51 42 - 71 - - - 30.10 30.07 0 OVC075 None
2018-10-23 05:51 51 42 - 71 - - - 30.11 30.09 0 OVC080 None
2018-10-23 04:51 49 43 - 79 - - - 30.12 30.09 0 OVC095 None
2018-10-23 03:51 50 41 - 71 - - - 30.14 30.11 0 OVC100 None
2018-10-23 02:51 50 38 - 63 - - - 30.15 30.12 0 OVC085 None
2018-10-23 01:51 49 39 - 68 - - - 30.17 30.14 0 FEW075 OVC090 6-hr Min Temp (2am): 48.0°F
6-hr Max Temp (2am): 50.0°F
2018-10-23 00:51 49 38 - 65 - - - 30.19 30.16 0 OVC080 24-hr Min Temp (1am): 39.0°F
24-hr Max Temp (1am): 50.0°F
2018-10-22 23:51 49 36 - 60 - - - 30.20 30.17 0 SCT080 None
2018-10-22 22:51 49 36 - 60 - - - 30.20 30.18 0 CLR None
2018-10-22 21:51 49 36 - 60 - - - 30.20 30.17 0 CLR None

Support USWX by starting your Amazon purchase here.